Middletown, Pennsylvania
Current Conditions -  °F | °C
As of 4:56 AM on Saturday 29 Nov 2014 (Local Time) from KMDT Reporting Station
Overcast Overcast  
Wind Chill: 27°   Ceiling: 7000
Heat Index: 27°   Visibility: 10mi
Dew Point: 17°   Wind: 0mph
Humidity: 66%   Direction: NA
Pressure: 30.29"   Gusts: NA
Location:  40.2°N, 76.73°W
Report Text: KMDT 290956Z 00000KT 10SM SCT050 OVC070 M03/M08 A3029 RMK AO2 SLP262 VIRGA SW-NW T10281083
Loading
Personal Weather Stations






























Interactive Weather Map New forecast layout! Learn more

10-Day Weather Forecast

Advertisements
Track Severe Weather on mobile